sensor_id;sensor_type;location;lat;lon;timestamp;P1;durP1;ratioP1;P2;durP2;ratioP2
68995;SDS011;56056;48.990;12.146;2024-02-26T00:02:06;1999.90;;;999.90;;
68995;SDS011;56056;48.990;12.146;2024-02-26T00:04:32;1999.90;;;999.90;;
68995;SDS011;56056;48.990;12.146;2024-02-26T00:06:57;1999.90;;;999.90;;
68995;SDS011;56056;48.990;12.146;2024-02-26T00:09:23;1999.90;;;999.90;;
68995;SDS011;56056;48.990;12.146;2024-02-26T00:11:49;1999.90;;;999.90;;
68995;SDS011;56056;48.990;12.146;2024-02-26T00:14:15;1999.90;;;999.90;;
68995;SDS011;56056;48.990;12.146;2024-02-26T00:16:42;1999.90;;;999.90;;
68995;SDS011;56056;48.990;12.146;2024-02-26T00:19:10;1999.90;;;999.90;;
68995;SDS011;56056;48.990;12.146;2024-02-26T00:21:39;1999.90;;;999.90;;
68995;SDS011;56056;48.990;12.146;2024-02-26T00:24:06;1999.90;;;999.90;;
68995;SDS011;56056;48.990;12.146;2024-02-26T00:26:32;1999.90;;;999.90;;
68995;SDS011;56056;48.990;12.146;2024-02-26T00:28:58;1999.90;;;999.90;;
68995;SDS011;56056;48.990;12.146;2024-02-26T00:31:23;1999.90;;;999.90;;
68995;SDS011;56056;48.990;12.146;2024-02-26T00:33:51;1999.90;;;999.90;;
68995;SDS011;56056;48.990;12.146;2024-02-26T00:36:16;1999.90;;;999.90;;
68995;SDS011;56056;48.990;12.146;2024-02-26T00:38:43;1999.90;;;999.90;;
68995;SDS011;56056;48.990;12.146;2024-02-26T00:41:11;1999.90;;;999.90;;
68995;SDS011;56056;48.990;12.146;2024-02-26T00:43:37;1999.90;;;999.90;;
68995;SDS011;56056;48.990;12.146;2024-02-26T00:46:05;1999.90;;;999.90;;
68995;SDS011;56056;48.990;12.146;2024-02-26T00:48:31;1999.90;;;999.90;;
68995;SDS011;56056;48.990;12.146;2024-02-26T00:50:58;1999.90;;;999.90;;
68995;SDS011;56056;48.990;12.146;2024-02-26T00:53:24;1999.90;;;999.90;;
68995;SDS011;56056;48.990;12.146;2024-02-26T00:55:50;1999.90;;;999.90;;
68995;SDS011;56056;48.990;12.146;2024-02-26T00:58:16;1999.90;;;999.90;;
68995;SDS011;56056;48.990;12.146;2024-02-26T01:00:42;1999.90;;;999.90;;
68995;SDS011;56056;48.990;12.146;2024-02-26T01:03:07;1999.90;;;999.90;;
68995;SDS011;56056;48.990;12.146;2024-02-26T01:05:34;1999.90;;;999.90;;
68995;SDS011;56056;48.990;12.146;2024-02-26T01:08:02;1999.90;;;999.90;;
68995;SDS011;56056;48.990;12.146;2024-02-26T01:10:29;1999.90;;;999.90;;
68995;SDS011;56056;48.990;12.146;2024-02-26T01:12:55;1999.90;;;999.90;;
68995;SDS011;56056;48.990;12.146;2024-02-26T01:15:21;1999.90;;;999.90;;
68995;SDS011;56056;48.990;12.146;2024-02-26T01:17:48;1999.90;;;999.90;;
68995;SDS011;56056;48.990;12.146;2024-02-26T01:20:14;1999.90;;;999.90;;
68995;SDS011;56056;48.990;12.146;2024-02-26T01:22:40;1999.90;;;999.90;;
68995;SDS011;56056;48.990;12.146;2024-02-26T01:25:09;1999.90;;;999.90;;
68995;SDS011;56056;48.990;12.146;2024-02-26T01:27:35;1999.90;;;999.90;;
68995;SDS011;56056;48.990;12.146;2024-02-26T01:30:01;1999.90;;;999.90;;
68995;SDS011;56056;48.990;12.146;2024-02-26T01:32:28;1999.90;;;999.90;;
68995;SDS011;56056;48.990;12.146;2024-02-26T01:34:55;1999.90;;;999.90;;
68995;SDS011;56056;48.990;12.146;2024-02-26T01:37:21;1999.90;;;999.90;;
68995;SDS011;56056;48.990;12.146;2024-02-26T01:39:47;1999.90;;;999.90;;
68995;SDS011;56056;48.990;12.146;2024-02-26T01:42:14;1999.90;;;999.90;;
68995;SDS011;56056;48.990;12.146;2024-02-26T01:44:40;1999.90;;;999.90;;
68995;SDS011;56056;48.990;12.146;2024-02-26T01:47:07;1999.90;;;999.90;;
68995;SDS011;56056;48.990;12.146;2024-02-26T01:49:36;1999.90;;;999.90;;
68995;SDS011;56056;48.990;12.146;2024-02-26T01:52:03;1999.90;;;999.90;;
68995;SDS011;56056;48.990;12.146;2024-02-26T01:54:31;1999.90;;;999.90;;
68995;SDS011;56056;48.990;12.146;2024-02-26T01:57:00;1999.90;;;999.90;;
68995;SDS011;56056;48.990;12.146;2024-02-26T01:59:28;1999.90;;;999.90;;
68995;SDS011;56056;48.990;12.146;2024-02-26T02:01:55;1999.90;;;999.90;;
68995;SDS011;56056;48.990;12.146;2024-02-26T02:04:23;1999.90;;;999.90;;
68995;SDS011;56056;48.990;12.146;2024-02-26T02:06:49;1999.90;;;999.90;;
68995;SDS011;56056;48.990;12.146;2024-02-26T02:09:17;1999.90;;;999.90;;
68995;SDS011;56056;48.990;12.146;2024-02-26T02:11:43;1999.90;;;999.90;;
68995;SDS011;56056;48.990;12.146;2024-02-26T02:14:09;1999.90;;;999.90;;
68995;SDS011;56056;48.990;12.146;2024-02-26T02:16:36;1999.90;;;999.90;;
68995;SDS011;56056;48.990;12.146;2024-02-26T02:19:02;1999.90;;;999.90;;
68995;SDS011;56056;48.990;12.146;2024-02-26T02:21:30;1999.90;;;999.90;;
68995;SDS011;56056;48.990;12.146;2024-02-26T02:23:55;1999.90;;;999.90;;
68995;SDS011;56056;48.990;12.146;2024-02-26T02:26:21;1999.90;;;999.90;;
68995;SDS011;56056;48.990;12.146;2024-02-26T02:28:47;1999.90;;;999.90;;
68995;SDS011;56056;48.990;12.146;2024-02-26T02:31:14;1999.90;;;999.90;;
68995;SDS011;56056;48.990;12.146;2024-02-26T02:33:41;1999.90;;;999.90;;
68995;SDS011;56056;48.990;12.146;2024-02-26T02:36:07;1999.32;;;999.90;;
68995;SDS011;56056;48.990;12.146;2024-02-26T02:38:36;1921.30;;;999.90;;
68995;SDS011;56056;48.990;12.146;2024-02-26T02:41:03;1837.65;;;999.90;;
68995;SDS011;56056;48.990;12.146;2024-02-26T02:43:29;1897.20;;;991.45;;
68995;SDS011;56056;48.990;12.146;2024-02-26T02:45:55;1826.20;;;995.65;;
68995;SDS011;56056;48.990;12.146;2024-02-26T02:48:20;1824.97;;;995.70;;
68995;SDS011;56056;48.990;12.146;2024-02-26T02:50:46;1778.07;;;999.90;;
68995;SDS011;56056;48.990;12.146;2024-02-26T02:53:12;1999.90;;;999.90;;
68995;SDS011;56056;48.990;12.146;2024-02-26T02:55:39;1762.15;;;999.90;;
68995;SDS011;56056;48.990;12.146;2024-02-26T02:58:05;1765.93;;;983.85;;
68995;SDS011;56056;48.990;12.146;2024-02-26T03:00:31;1876.45;;;999.90;;
68995;SDS011;56056;48.990;12.146;2024-02-26T03:02:57;1886.57;;;999.90;;
68995;SDS011;56056;48.990;12.146;2024-02-26T03:05:23;1968.07;;;999.90;;
68995;SDS011;56056;48.990;12.146;2024-02-26T03:07:49;1999.90;;;999.90;;
68995;SDS011;56056;48.990;12.146;2024-02-26T03:10:15;1916.97;;;999.90;;
68995;SDS011;56056;48.990;12.146;2024-02-26T03:12:42;1879.90;;;999.90;;
68995;SDS011;56056;48.990;12.146;2024-02-26T03:15:08;1808.53;;;987.03;;
68995;SDS011;56056;48.990;12.146;2024-02-26T03:17:36;1807.85;;;969.97;;
68995;SDS011;56056;48.990;12.146;2024-02-26T03:20:02;1759.75;;;982.70;;
68995;SDS011;56056;48.990;12.146;2024-02-26T03:22:30;1789.95;;;995.47;;
68995;SDS011;56056;48.990;12.146;2024-02-26T03:24:56;1753.30;;;957.67;;
68995;SDS011;56056;48.990;12.146;2024-02-26T03:27:22;1739.07;;;950.63;;
68995;SDS011;56056;48.990;12.146;2024-02-26T03:29:49;1797.75;;;988.58;;
68995;SDS011;56056;48.990;12.146;2024-02-26T03:32:16;1912.25;;;999.90;;
68995;SDS011;56056;48.990;12.146;2024-02-26T03:34:42;1704.30;;;994.22;;
68995;SDS011;56056;48.990;12.146;2024-02-26T03:37:07;1726.60;;;976.92;;
68995;SDS011;56056;48.990;12.146;2024-02-26T03:39:35;1661.95;;;913.47;;
68995;SDS011;56056;48.990;12.146;2024-02-26T03:42:01;1784.97;;;935.95;;
68995;SDS011;56056;48.990;12.146;2024-02-26T03:44:28;1681.50;;;882.13;;
68995;SDS011;56056;48.990;12.146;2024-02-26T03:46:55;1521.72;;;813.72;;
68995;SDS011;56056;48.990;12.146;2024-02-26T03:49:21;1540.75;;;801.63;;
68995;SDS011;56056;48.990;12.146;2024-02-26T03:51:47;1501.15;;;712.65;;
68995;SDS011;56056;48.990;12.146;2024-02-26T03:54:13;1468.82;;;754.08;;
68995;SDS011;56056;48.990;12.146;2024-02-26T03:56:39;1498.07;;;744.03;;
68995;SDS011;56056;48.990;12.146;2024-02-26T03:59:05;1516.10;;;740.17;;
68995;SDS011;56056;48.990;12.146;2024-02-26T04:01:31;1403.50;;;685.15;;
68995;SDS011;56056;48.990;12.146;2024-02-26T04:03:58;1460.05;;;700.55;;
68995;SDS011;56056;48.990;12.146;2024-02-26T04:06:24;1500.93;;;752.40;;
68995;SDS011;56056;48.990;12.146;2024-02-26T04:08:50;1546.95;;;795.58;;
68995;SDS011;56056;48.990;12.146;2024-02-26T04:11:16;1500.43;;;740.80;;
68995;SDS011;56056;48.990;12.146;2024-02-26T04:13:43;1592.10;;;811.63;;
68995;SDS011;56056;48.990;12.146;2024-02-26T04:16:11;1505.90;;;795.90;;
68995;SDS011;56056;48.990;12.146;2024-02-26T04:18:37;1870.85;;;948.83;;
68995;SDS011;56056;48.990;12.146;2024-02-26T04:21:05;1625.10;;;826.28;;
68995;SDS011;56056;48.990;12.146;2024-02-26T04:23:32;1505.53;;;795.33;;
68995;SDS011;56056;48.990;12.146;2024-02-26T04:25:58;1485.35;;;757.95;;
68995;SDS011;56056;48.990;12.146;2024-02-26T04:28:23;1652.30;;;918.28;;
68995;SDS011;56056;48.990;12.146;2024-02-26T04:30:54;1493.07;;;801.95;;
68995;SDS011;56056;48.990;12.146;2024-02-26T04:33:20;1374.70;;;695.42;;
68995;SDS011;56056;48.990;12.146;2024-02-26T04:35:46;1352.05;;;598.53;;
68995;SDS011;56056;48.990;12.146;2024-02-26T04:38:13;1491.32;;;720.10;;
68995;SDS011;56056;48.990;12.146;2024-02-26T04:40:39;1297.80;;;617.63;;
68995;SDS011;56056;48.990;12.146;2024-02-26T04:43:05;1266.78;;;578.90;;
68995;SDS011;56056;48.990;12.146;2024-02-26T04:45:31;1305.03;;;580.28;;
68995;SDS011;56056;48.990;12.146;2024-02-26T04:47:57;1441.75;;;697.75;;
68995;SDS011;56056;48.990;12.146;2024-02-26T04:50:22;1369.80;;;712.72;;
68995;SDS011;56056;48.990;12.146;2024-02-26T04:52:48;1409.13;;;695.40;;
68995;SDS011;56056;48.990;12.146;2024-02-26T04:55:15;1517.35;;;766.60;;
68995;SDS011;56056;48.990;12.146;2024-02-26T04:57:42;1399.57;;;642.03;;
68995;SDS011;56056;48.990;12.146;2024-02-26T05:00:08;1859.40;;;903.60;;
68995;SDS011;56056;48.990;12.146;2024-02-26T05:02:36;1200.63;;;505.65;;
68995;SDS011;56056;48.990;12.146;2024-02-26T05:05:03;1233.47;;;581.13;;
68995;SDS011;56056;48.990;12.146;2024-02-26T05:07:30;1386.32;;;654.58;;
68995;SDS011;56056;48.990;12.146;2024-02-26T05:09:56;1887.20;;;923.15;;
68995;SDS011;56056;48.990;12.146;2024-02-26T05:12:23;1275.55;;;544.35;;
68995;SDS011;56056;48.990;12.146;2024-02-26T05:14:49;1252.25;;;521.45;;
68995;SDS011;56056;48.990;12.146;2024-02-26T05:17:15;1307.60;;;551.88;;
68995;SDS011;56056;48.990;12.146;2024-02-26T05:19:41;1334.85;;;592.35;;
68995;SDS011;56056;48.990;12.146;2024-02-26T05:22:07;1176.45;;;498.77;;
68995;SDS011;56056;48.990;12.146;2024-02-26T05:24:32;1380.75;;;588.50;;
68995;SDS011;56056;48.990;12.146;2024-02-26T05:27:00;1879.85;;;923.13;;
68995;SDS011;56056;48.990;12.146;2024-02-26T05:29:27;1492.00;;;679.72;;
68995;SDS011;56056;48.990;12.146;2024-02-26T05:31:53;1661.45;;;888.35;;
68995;SDS011;56056;48.990;12.146;2024-02-26T05:34:19;1538.85;;;757.45;;
68995;SDS011;56056;48.990;12.146;2024-02-26T05:36:45;1402.13;;;652.75;;
68995;SDS011;56056;48.990;12.146;2024-02-26T05:39:11;1590.88;;;793.40;;
68995;SDS011;56056;48.990;12.146;2024-02-26T05:41:37;1594.03;;;806.55;;
68995;SDS011;56056;48.990;12.146;2024-02-26T05:44:03;1515.88;;;712.20;;
68995;SDS011;56056;48.990;12.146;2024-02-26T05:46:30;1512.82;;;709.70;;
68995;SDS011;56056;48.990;12.146;2024-02-26T05:48:56;1536.63;;;767.00;;
68995;SDS011;56056;48.990;12.146;2024-02-26T05:51:22;1624.70;;;834.13;;
68995;SDS011;56056;48.990;12.146;2024-02-26T05:53:48;1560.55;;;838.30;;
68995;SDS011;56056;48.990;12.146;2024-02-26T05:56:18;1537.63;;;805.88;;
68995;SDS011;56056;48.990;12.146;2024-02-26T05:58:45;1587.30;;;865.30;;
68995;SDS011;56056;48.990;12.146;2024-02-26T06:01:11;1789.85;;;914.33;;
68995;SDS011;56056;48.990;12.146;2024-02-26T06:03:38;1591.95;;;847.63;;
68995;SDS011;56056;48.990;12.146;2024-02-26T06:06:04;1443.18;;;701.20;;
68995;SDS011;56056;48.990;12.146;2024-02-26T06:08:30;1530.28;;;799.83;;
68995;SDS011;56056;48.990;12.146;2024-02-26T06:10:56;1734.03;;;856.40;;
68995;SDS011;56056;48.990;12.146;2024-02-26T06:13:22;1327.45;;;658.20;;
68995;SDS011;56056;48.990;12.146;2024-02-26T06:15:48;1330.35;;;645.22;;
68995;SDS011;56056;48.990;12.146;2024-02-26T06:18:14;1812.70;;;883.22;;
68995;SDS011;56056;48.990;12.146;2024-02-26T06:20:41;1263.25;;;550.92;;
68995;SDS011;56056;48.990;12.146;2024-02-26T06:23:07;1256.15;;;563.05;;
68995;SDS011;56056;48.990;12.146;2024-02-26T06:25:33;1539.40;;;725.95;;
68995;SDS011;56056;48.990;12.146;2024-02-26T06:27:59;1500.20;;;733.60;;
68995;SDS011;56056;48.990;12.146;2024-02-26T06:30:25;1274.88;;;597.65;;
68995;SDS011;56056;48.990;12.146;2024-02-26T06:32:51;1590.88;;;776.85;;
68995;SDS011;56056;48.990;12.146;2024-02-26T06:35:17;1177.18;;;517.67;;
68995;SDS011;56056;48.990;12.146;2024-02-26T06:37:44;1309.40;;;607.20;;
68995;SDS011;56056;48.990;12.146;2024-02-26T06:40:10;1873.30;;;888.03;;
68995;SDS011;56056;48.990;12.146;2024-02-26T06:42:37;1442.88;;;688.45;;
68995;SDS011;56056;48.990;12.146;2024-02-26T06:45:04;1346.53;;;578.00;;
68995;SDS011;56056;48.990;12.146;2024-02-26T06:47:32;1492.03;;;691.58;;
68995;SDS011;56056;48.990;12.146;2024-02-26T06:49:58;1418.25;;;630.75;;
68995;SDS011;56056;48.990;12.146;2024-02-26T06:52:25;1505.43;;;657.08;;
68995;SDS011;56056;48.990;12.146;2024-02-26T06:54:53;1636.05;;;768.85;;
68995;SDS011;56056;48.990;12.146;2024-02-26T06:57:19;1772.85;;;836.33;;
68995;SDS011;56056;48.990;12.146;2024-02-26T06:59:45;1588.45;;;714.58;;
68995;SDS011;56056;48.990;12.146;2024-02-26T07:02:12;1833.65;;;909.20;;
68995;SDS011;56056;48.990;12.146;2024-02-26T07:04:38;1834.72;;;958.22;;
68995;SDS011;56056;48.990;12.146;2024-02-26T07:07:04;1736.32;;;928.50;;
68995;SDS011;56056;48.990;12.146;2024-02-26T07:09:30;1847.82;;;970.53;;
68995;SDS011;56056;48.990;12.146;2024-02-26T07:11:57;1999.55;;;999.90;;
68995;SDS011;56056;48.990;12.146;2024-02-26T07:14:23;1914.30;;;999.90;;
68995;SDS011;56056;48.990;12.146;2024-02-26T07:16:49;1995.10;;;999.90;;
68995;SDS011;56056;48.990;12.146;2024-02-26T07:19:15;1698.13;;;999.90;;
68995;SDS011;56056;48.990;12.146;2024-02-26T07:21:41;1953.22;;;999.90;;
68995;SDS011;56056;48.990;12.146;2024-02-26T07:24:07;1893.53;;;999.90;;
68995;SDS011;56056;48.990;12.146;2024-02-26T07:26:33;1547.35;;;999.90;;
68995;SDS011;56056;48.990;12.146;2024-02-26T07:29:01;1603.03;;;999.90;;
68995;SDS011;56056;48.990;12.146;2024-02-26T07:31:27;481.02;;;442.00;;
68995;SDS011;56056;48.990;12.146;2024-02-26T07:33:52;115.50;;;109.22;;
68995;SDS011;56056;48.990;12.146;2024-02-26T07:36:18;208.80;;;199.80;;
68995;SDS011;56056;48.990;12.146;2024-02-26T07:38:44;459.73;;;438.50;;
68995;SDS011;56056;48.990;12.146;2024-02-26T07:41:11;589.63;;;560.03;;
68995;SDS011;56056;48.990;12.146;2024-02-26T07:43:37;730.15;;;687.75;;
68995;SDS011;56056;48.990;12.146;2024-02-26T07:46:04;709.63;;;670.53;;
68995;SDS011;56056;48.990;12.146;2024-02-26T07:48:30;599.78;;;571.17;;
68995;SDS011;56056;48.990;12.146;2024-02-26T07:50:56;797.67;;;751.10;;
68995;SDS011;56056;48.990;12.146;2024-02-26T07:53:24;808.38;;;760.33;;
68995;SDS011;56056;48.990;12.146;2024-02-26T07:55:49;803.65;;;757.60;;
68995;SDS011;56056;48.990;12.146;2024-02-26T07:58:15;804.70;;;757.97;;
68995;SDS011;56056;48.990;12.146;2024-02-26T08:00:41;829.38;;;780.72;;
68995;SDS011;56056;48.990;12.146;2024-02-26T08:03:08;756.80;;;715.88;;
68995;SDS011;56056;48.990;12.146;2024-02-26T08:05:34;690.10;;;654.80;;
68995;SDS011;56056;48.990;12.146;2024-02-26T08:08:01;818.60;;;770.92;;
68995;SDS011;56056;48.990;12.146;2024-02-26T08:10:27;812.95;;;765.20;;
68995;SDS011;56056;48.990;12.146;2024-02-26T08:12:52;795.17;;;750.20;;
68995;SDS011;56056;48.990;12.146;2024-02-26T08:15:19;820.38;;;773.10;;
68995;SDS011;56056;48.990;12.146;2024-02-26T08:17:44;766.33;;;724.88;;
68995;SDS011;56056;48.990;12.146;2024-02-26T08:20:14;746.00;;;705.63;;
68995;SDS011;56056;48.990;12.146;2024-02-26T08:22:40;674.63;;;640.83;;
68995;SDS011;56056;48.990;12.146;2024-02-26T08:25:06;498.00;;;476.50;;
68995;SDS011;56056;48.990;12.146;2024-02-26T08:27:34;626.13;;;596.05;;
68995;SDS011;56056;48.990;12.146;2024-02-26T08:30:00;666.75;;;633.72;;
68995;SDS011;56056;48.990;12.146;2024-02-26T08:32:26;685.30;;;650.88;;
68995;SDS011;56056;48.990;12.146;2024-02-26T08:34:52;655.03;;;623.63;;
68995;SDS011;56056;48.990;12.146;2024-02-26T08:37:19;759.17;;;717.28;;
68995;SDS011;56056;48.990;12.146;2024-02-26T08:39:45;695.40;;;659.15;;
68995;SDS011;56056;48.990;12.146;2024-02-26T08:42:12;772.90;;;730.45;;
68995;SDS011;56056;48.990;12.146;2024-02-26T08:44:37;793.90;;;749.63;;
68995;SDS011;56056;48.990;12.146;2024-02-26T08:47:03;799.00;;;753.65;;
68995;SDS011;56056;48.990;12.146;2024-02-26T08:49:30;781.25;;;737.40;;
68995;SDS011;56056;48.990;12.146;2024-02-26T08:51:56;784.13;;;741.03;;
68995;SDS011;56056;48.990;12.146;2024-02-26T08:54:23;581.78;;;555.20;;
68995;SDS011;56056;48.990;12.146;2024-02-26T08:56:49;525.65;;;503.02;;
68995;SDS011;56056;48.990;12.146;2024-02-26T08:59:15;690.97;;;656.38;;
68995;SDS011;56056;48.990;12.146;2024-02-26T09:01:41;606.70;;;578.17;;
68995;SDS011;56056;48.990;12.146;2024-02-26T09:04:07;516.95;;;494.52;;
68995;SDS011;56056;48.990;12.146;2024-02-26T09:06:33;476.83;;;456.35;;
68995;SDS011;56056;48.990;12.146;2024-02-26T09:08:59;377.77;;;362.70;;
68995;SDS011;56056;48.990;12.146;2024-02-26T09:11:26;492.70;;;471.52;;
68995;SDS011;56056;48.990;12.146;2024-02-26T09:13:52;415.17;;;398.25;;
68995;SDS011;56056;48.990;12.146;2024-02-26T09:16:18;334.42;;;321.63;;
68995;SDS011;56056;48.990;12.146;2024-02-26T09:18:44;410.38;;;394.50;;
68995;SDS011;56056;48.990;12.146;2024-02-26T09:21:10;260.85;;;251.23;;
68995;SDS011;56056;48.990;12.146;2024-02-26T09:23:36;321.52;;;309.10;;
68995;SDS011;56056;48.990;12.146;2024-02-26T09:26:02;106.05;;;102.22;;
68995;SDS011;56056;48.990;12.146;2024-02-26T09:28:31;214.48;;;206.50;;
68995;SDS011;56056;48.990;12.146;2024-02-26T09:31:02;348.95;;;335.40;;
68995;SDS011;56056;48.990;12.146;2024-02-26T09:33:29;151.52;;;146.05;;
68995;SDS011;56056;48.990;12.146;2024-02-26T09:35:54;183.95;;;177.15;;
68995;SDS011;56056;48.990;12.146;2024-02-26T09:38:20;204.43;;;196.80;;
68995;SDS011;56056;48.990;12.146;2024-02-26T09:40:47;145.27;;;140.00;;
68995;SDS011;56056;48.990;12.146;2024-02-26T09:43:13;331.02;;;318.30;;
68995;SDS011;56056;48.990;12.146;2024-02-26T09:45:43;572.72;;;547.25;;
68995;SDS011;56056;48.990;12.146;2024-02-26T09:48:09;618.75;;;590.03;;
68995;SDS011;56056;48.990;12.146;2024-02-26T09:50:38;479.02;;;458.90;;
68995;SDS011;56056;48.990;12.146;2024-02-26T09:53:06;493.50;;;473.20;;
68995;SDS011;56056;48.990;12.146;2024-02-26T09:55:35;474.08;;;455.50;;
68995;SDS011;56056;48.990;12.146;2024-02-26T09:58:01;339.00;;;326.08;;
68995;SDS011;56056;48.990;12.146;2024-02-26T10:00:28;348.98;;;335.95;;
68995;SDS011;56056;48.990;12.146;2024-02-26T10:03:01;337.10;;;324.45;;
68995;SDS011;56056;48.990;12.146;2024-02-26T10:05:30;288.65;;;278.02;;
68995;SDS011;56056;48.990;12.146;2024-02-26T10:07:58;309.67;;;298.27;;
68995;SDS011;56056;48.990;12.146;2024-02-26T10:10:26;405.60;;;389.10;;
68995;SDS011;56056;48.990;12.146;2024-02-26T10:12:54;353.67;;;339.70;;
68995;SDS011;56056;48.990;12.146;2024-02-26T10:15:20;431.83;;;413.35;;
68995;SDS011;56056;48.990;12.146;2024-02-26T10:17:46;305.63;;;293.67;;
68995;SDS011;56056;48.990;12.146;2024-02-26T10:20:14;523.25;;;499.73;;
68995;SDS011;56056;48.990;12.146;2024-02-26T10:22:48;625.05;;;594.85;;
68995;SDS011;56056;48.990;12.146;2024-02-26T10:25:14;629.88;;;599.72;;
68995;SDS011;56056;48.990;12.146;2024-02-26T10:27:40;655.88;;;625.08;;
68995;SDS011;56056;48.990;12.146;2024-02-26T10:30:16;619.03;;;589.75;;
68995;SDS011;56056;48.990;12.146;2024-02-26T10:32:46;664.65;;;632.30;;
68995;SDS011;56056;48.990;12.146;2024-02-26T10:35:16;682.50;;;649.55;;
68995;SDS011;56056;48.990;12.146;2024-02-26T10:37:45;677.55;;;644.10;;
68995;SDS011;56056;48.990;12.146;2024-02-26T10:40:12;636.33;;;605.90;;
68995;SDS011;56056;48.990;12.146;2024-02-26T10:42:40;645.45;;;614.50;;
68995;SDS011;56056;48.990;12.146;2024-02-26T10:45:07;664.05;;;632.00;;
68995;SDS011;56056;48.990;12.146;2024-02-26T10:47:34;575.22;;;548.53;;
68995;SDS011;56056;48.990;12.146;2024-02-26T10:50:01;628.15;;;598.67;;
68995;SDS011;56056;48.990;12.146;2024-02-26T10:52:30;541.58;;;516.60;;
68995;SDS011;56056;48.990;12.146;2024-02-26T10:55:00;557.72;;;532.05;;
68995;SDS011;56056;48.990;12.146;2024-02-26T10:57:28;634.80;;;604.72;;
68995;SDS011;56056;48.990;12.146;2024-02-26T10:59:57;674.13;;;640.65;;
68995;SDS011;56056;48.990;12.146;2024-02-26T11:02:25;421.55;;;404.20;;
68995;SDS011;56056;48.990;12.146;2024-02-26T11:04:52;497.83;;;476.83;;
68995;SDS011;56056;48.990;12.146;2024-02-26T11:07:19;482.48;;;462.48;;
68995;SDS011;56056;48.990;12.146;2024-02-26T11:09:47;448.25;;;429.95;;
68995;SDS011;56056;48.990;12.146;2024-02-26T11:12:17;370.25;;;355.88;;
68995;SDS011;56056;48.990;12.146;2024-02-26T11:14:44;419.98;;;403.40;;
68995;SDS011;56056;48.990;12.146;2024-02-26T11:17:12;467.48;;;448.70;;
68995;SDS011;56056;48.990;12.146;2024-02-26T11:19:40;435.67;;;418.58;;
68995;SDS011;56056;48.990;12.146;2024-02-26T11:22:08;395.73;;;380.25;;
68995;SDS011;56056;48.990;12.146;2024-02-26T11:24:34;350.23;;;337.02;;
68995;SDS011;56056;48.990;12.146;2024-02-26T11:27:06;337.08;;;324.50;;
68995;SDS011;56056;48.990;12.146;2024-02-26T11:29:37;350.75;;;337.45;;
68995;SDS011;56056;48.990;12.146;2024-02-26T11:32:08;346.02;;;332.73;;
68995;SDS011;56056;48.990;12.146;2024-02-26T11:34:35;404.63;;;388.02;;
68995;SDS011;56056;48.990;12.146;2024-02-26T11:37:08;466.70;;;446.73;;
68995;SDS011;56056;48.990;12.146;2024-02-26T11:39:36;500.02;;;478.15;;
68995;SDS011;56056;48.990;12.146;2024-02-26T11:42:04;555.63;;;530.58;;
68995;SDS011;56056;48.990;12.146;2024-02-26T11:44:33;533.17;;;509.42;;
68995;SDS011;56056;48.990;12.146;2024-02-26T11:47:09;465.00;;;445.35;;
68995;SDS011;56056;48.990;12.146;2024-02-26T11:49:36;567.25;;;541.78;;
68995;SDS011;56056;48.990;12.146;2024-02-26T11:52:05;592.00;;;564.92;;
68995;SDS011;56056;48.990;12.146;2024-02-26T11:54:40;634.75;;;604.75;;
68995;SDS011;56056;48.990;12.146;2024-02-26T11:57:21;657.08;;;625.42;;
68995;SDS011;56056;48.990;12.146;2024-02-26T11:59:53;626.90;;;597.72;;
68995;SDS011;56056;48.990;12.146;2024-02-26T12:05:05;637.75;;;608.03;;
68995;SDS011;56056;48.990;12.146;2024-02-26T12:07:34;629.47;;;600.03;;
68995;SDS011;56056;48.990;12.146;2024-02-26T12:10:21;584.25;;;558.13;;
68995;SDS011;56056;48.990;12.146;2024-02-26T12:12:56;603.15;;;576.13;;
68995;SDS011;56056;48.990;12.146;2024-02-26T12:15:30;685.72;;;652.25;;
68995;SDS011;56056;48.990;12.146;2024-02-26T12:17:57;672.72;;;640.00;;
68995;SDS011;56056;48.990;12.146;2024-02-26T12:20:25;696.42;;;661.90;;
68995;SDS011;56056;48.990;12.146;2024-02-26T12:22:51;669.83;;;637.25;;
68995;SDS011;56056;48.990;12.146;2024-02-26T12:25:21;628.58;;;598.80;;
68995;SDS011;56056;48.990;12.146;2024-02-26T12:27:50;556.80;;;531.42;;
68995;SDS011;56056;48.990;12.146;2024-02-26T12:30:17;652.00;;;621.35;;
68995;SDS011;56056;48.990;12.146;2024-02-26T12:32:44;694.33;;;659.67;;
68995;SDS011;56056;48.990;12.146;2024-02-26T12:35:10;654.72;;;623.30;;
68995;SDS011;56056;48.990;12.146;2024-02-26T12:37:36;659.25;;;626.90;;
68995;SDS011;56056;48.990;12.146;2024-02-26T12:40:04;672.15;;;639.88;;
68995;SDS011;56056;48.990;12.146;2024-02-26T12:42:33;655.42;;;623.50;;
68995;SDS011;56056;48.990;12.146;2024-02-26T12:45:04;645.97;;;615.47;;
68995;SDS011;56056;48.990;12.146;2024-02-26T12:47:36;679.60;;;646.65;;
68995;SDS011;56056;48.990;12.146;2024-02-26T12:50:03;620.88;;;592.00;;
68995;SDS011;56056;48.990;12.146;2024-02-26T12:52:30;685.97;;;652.40;;
68995;SDS011;56056;48.990;12.146;2024-02-26T12:54:57;723.83;;;687.20;;
68995;SDS011;56056;48.990;12.146;2024-02-26T12:57:23;683.58;;;649.13;;
68995;SDS011;56056;48.990;12.146;2024-02-26T12:59:49;587.10;;;560.40;;
68995;SDS011;56056;48.990;12.146;2024-02-26T13:02:15;613.38;;;584.92;;
68995;SDS011;56056;48.990;12.146;2024-02-26T13:04:43;615.20;;;586.13;;
68995;SDS011;56056;48.990;12.146;2024-02-26T13:07:09;556.97;;;531.88;;
68995;SDS011;56056;48.990;12.146;2024-02-26T13:09:35;448.50;;;430.20;;
68995;SDS011;56056;48.990;12.146;2024-02-26T13:12:03;450.20;;;432.02;;
68995;SDS011;56056;48.990;12.146;2024-02-26T13:14:30;488.38;;;468.58;;
68995;SDS011;56056;48.990;12.146;2024-02-26T13:16:59;493.40;;;473.48;;
68995;SDS011;56056;48.990;12.146;2024-02-26T13:19:25;564.60;;;540.55;;
68995;SDS011;56056;48.990;12.146;2024-02-26T13:21:54;607.00;;;579.97;;
68995;SDS011;56056;48.990;12.146;2024-02-26T13:24:20;382.83;;;367.83;;
68995;SDS011;56056;48.990;12.146;2024-02-26T13:26:47;281.20;;;270.67;;
68995;SDS011;56056;48.990;12.146;2024-02-26T13:29:19;249.48;;;240.20;;
68995;SDS011;56056;48.990;12.146;2024-02-26T13:31:45;182.88;;;175.98;;
68995;SDS011;56056;48.990;12.146;2024-02-26T13:34:11;392.10;;;376.65;;
68995;SDS011;56056;48.990;12.146;2024-02-26T13:36:49;330.95;;;318.38;;
68995;SDS011;56056;48.990;12.146;2024-02-26T13:39:22;403.38;;;387.55;;
68995;SDS011;56056;48.990;12.146;2024-02-26T13:41:48;528.55;;;506.17;;